createdAt,value
2022-08-23T00:00:44.496Z,3.60
2022-08-23T00:05:50.161Z,3.53
2022-08-23T00:10:55.758Z,4.00
2022-08-23T00:16:02.033Z,3.67
2022-08-23T00:21:09.459Z,3.77
2022-08-23T00:26:15.086Z,3.70
2022-08-23T00:31:22.080Z,3.30
2022-08-23T00:36:27.649Z,3.70
2022-08-23T00:41:34.417Z,3.77
2022-08-23T00:47:12.975Z,3.73
2022-08-23T00:52:30.614Z,3.53
2022-08-23T00:57:37.451Z,3.53
2022-08-23T01:02:45.556Z,3.63
2022-08-23T01:07:57.072Z,2.90
2022-08-23T01:13:20.828Z,3.40
2022-08-23T01:18:28.951Z,3.50
2022-08-23T01:23:40.457Z,3.70
2022-08-23T01:28:46.331Z,3.33
2022-08-23T01:34:00.919Z,4.00
2022-08-23T01:39:08.447Z,7.37
2022-08-23T01:44:15.007Z,3.30
2022-08-23T01:49:20.988Z,3.73
2022-08-23T01:54:26.654Z,14.13
2022-08-23T01:59:34.305Z,3.90
2022-08-23T02:04:39.923Z,3.57
2022-08-23T02:09:46.205Z,3.80
2022-08-23T02:14:52.382Z,3.83
2022-08-23T02:20:00.137Z,4.33
2022-08-23T02:25:06.759Z,3.63
2022-08-23T02:30:13.130Z,3.93
2022-08-23T02:35:19.665Z,4.60
2022-08-23T02:40:25.306Z,4.10
2022-08-23T02:45:31.374Z,4.20
2022-08-23T02:50:37.999Z,3.73
2022-08-23T02:55:48.114Z,4.37
2022-08-23T03:00:54.742Z,4.20
2022-08-23T03:06:24.915Z,4.20
2022-08-23T03:11:17.198Z,4.37
2022-08-23T03:16:23.737Z,3.80
2022-08-23T03:21:29.413Z,3.67
2022-08-23T03:26:35.075Z,4.00
2022-08-23T03:31:42.178Z,3.53
2022-08-23T03:36:49.483Z,4.37
2022-08-23T03:41:55.801Z,4.27
2022-08-23T03:47:02.487Z,4.07
2022-08-23T03:52:08.629Z,4.43
2022-08-23T03:57:14.410Z,4.30
2022-08-23T04:02:20.994Z,5.20
2022-08-23T04:07:27.407Z,5.63
2022-08-23T04:12:34.387Z,4.63
2022-08-23T04:17:42.683Z,5.43
2022-08-23T04:22:51.352Z,5.20
2022-08-23T04:27:57.556Z,4.23
2022-08-23T04:33:03.589Z,4.90
2022-08-23T04:38:24.736Z,5.10
2022-08-23T04:43:19.650Z,5.13
2022-08-23T04:48:25.415Z,4.90
2022-08-23T04:53:33.073Z,5.17
2022-08-23T04:58:46.571Z,5.37
2022-08-23T05:03:53.163Z,4.80
2022-08-23T05:09:02.003Z,5.00
2022-08-23T05:14:08.388Z,5.50
2022-08-23T05:19:15.041Z,5.17
2022-08-23T05:24:22.379Z,5.07
2022-08-23T05:29:29.501Z,5.23
2022-08-23T05:34:35.297Z,5.30
2022-08-23T05:39:43.280Z,4.87
2022-08-23T05:44:49.149Z,5.20
2022-08-23T05:49:56.408Z,6.43
2022-08-23T05:55:02.989Z,6.20
2022-08-23T06:00:16.606Z,5.17
2022-08-23T06:05:24.107Z,4.87
2022-08-23T06:10:30.090Z,4.30
2022-08-23T06:15:37.333Z,4.13
2022-08-23T06:20:43.165Z,3.60
2022-08-23T06:25:50.519Z,4.03
2022-08-23T06:30:58.752Z,3.43
2022-08-23T06:36:13.363Z,3.07
2022-08-23T06:41:26.832Z,3.70
2022-08-23T06:46:39.035Z,3.07
2022-08-23T06:51:48.969Z,3.10
2022-08-23T06:56:57.004Z,2.87
2022-08-23T07:02:12.460Z,2.80
2022-08-23T07:07:41.354Z,2.90
2022-08-23T07:12:45.908Z,2.90
2022-08-23T07:17:52.245Z,2.67
2022-08-23T07:22:59.191Z,2.63
2022-08-23T07:28:09.814Z,2.80
2022-08-23T07:33:12.765Z,2.60
2022-08-23T07:38:20.457Z,2.20
2022-08-23T07:43:26.067Z,2.40
2022-08-23T07:48:53.008Z,3.03
2022-08-23T07:53:46.075Z,2.47
2022-08-23T07:58:51.923Z,2.43
2022-08-23T08:04:12.655Z,2.50
2022-08-23T08:09:20.811Z,2.40
2022-08-23T08:14:26.639Z,2.73
2022-08-23T08:19:33.944Z,2.53
2022-08-23T08:24:50.466Z,2.70
2022-08-23T08:29:56.645Z,2.17
2022-08-23T08:35:02.822Z,2.33
2022-08-23T08:40:10.181Z,2.37
2022-08-23T08:45:21.941Z,2.67
2022-08-23T08:50:44.503Z,2.40
2022-08-23T08:55:53.275Z,2.27
2022-08-23T09:00:59.932Z,2.17
2022-08-23T09:06:39.107Z,2.30
2022-08-23T09:12:19.670Z,2.20
2022-08-23T09:17:28.624Z,2.40
2022-08-23T09:22:39.036Z,2.33
2022-08-23T09:27:48.552Z,2.40
2022-08-23T09:32:55.871Z,2.10
2022-08-23T09:38:05.722Z,2.40
2022-08-23T09:43:27.118Z,1.70
2022-08-23T09:48:44.925Z,2.17
2022-08-23T09:54:13.419Z,2.10
2022-08-23T09:59:29.626Z,1.80
2022-08-23T10:04:40.583Z,2.17
2022-08-23T10:09:46.286Z,1.70
2022-08-23T10:14:53.550Z,2.03
2022-08-23T10:20:36.859Z,1.90
2022-08-23T10:25:45.597Z,2.10
2022-08-23T10:31:12.618Z,2.30
2022-08-23T10:36:21.692Z,2.50
2022-08-23T10:42:01.874Z,2.30
2022-08-23T10:47:14.404Z,1.80
2022-08-23T10:52:30.408Z,2.13
2022-08-23T10:57:39.356Z,1.93
2022-08-23T11:02:54.255Z,1.73
2022-08-23T11:08:04.597Z,1.80
2022-08-23T11:13:20.934Z,2.10
2022-08-23T11:18:38.799Z,2.47
2022-08-23T11:24:02.700Z,2.60
2022-08-23T11:29:11.524Z,1.80
2022-08-23T11:34:29.765Z,2.53
2022-08-23T11:39:56.142Z,2.27
2022-08-23T11:45:02.497Z,2.63
2022-08-23T11:50:29.359Z,2.60
2022-08-23T11:56:03.716Z,2.30
2022-08-23T12:01:12.038Z,3.27
2022-08-23T12:06:39.090Z,2.40
2022-08-23T12:11:57.894Z,1.80
2022-08-23T12:17:06.395Z,1.87
2022-08-23T12:22:24.902Z,2.07
2022-08-23T12:27:39.366Z,2.60
2022-08-23T12:33:13.621Z,2.37
2022-08-23T12:38:41.598Z,2.37
2022-08-23T12:44:03.240Z,2.60
2022-08-23T12:49:13.266Z,1.97
2022-08-23T12:54:25.509Z,2.03
2022-08-23T12:59:46.353Z,1.97
2022-08-23T13:04:53.467Z,2.30
2022-08-23T13:09:59.244Z,1.70
2022-08-23T13:15:06.142Z,1.77
2022-08-23T13:20:21.935Z,1.57
2022-08-23T13:25:32.229Z,2.10
2022-08-23T13:30:39.585Z,1.73
2022-08-23T13:35:49.620Z,2.00
2022-08-23T13:41:11.064Z,1.80
2022-08-23T13:46:22.891Z,2.20
2022-08-23T13:51:38.818Z,2.03
2022-08-23T13:56:53.337Z,1.73
2022-08-23T14:02:02.144Z,1.80
2022-08-23T14:07:16.934Z,1.80
2022-08-23T14:12:27.606Z,1.80
2022-08-23T14:17:39.286Z,1.60
2022-08-23T14:22:48.156Z,2.00
2022-08-23T14:27:54.540Z,1.70
2022-08-23T14:33:01.579Z,1.80
2022-08-23T14:38:07.328Z,2.17
2022-08-23T14:43:13.896Z,1.93
2022-08-23T14:48:19.976Z,1.93
2022-08-23T14:53:28.545Z,1.90
2022-08-23T14:58:35.644Z,2.47
2022-08-23T15:03:42.183Z,1.70
2022-08-23T15:08:48.973Z,1.80
2022-08-23T15:13:56.145Z,2.03
2022-08-23T15:19:02.710Z,2.60
2022-08-23T15:24:10.609Z,1.67
2022-08-23T15:29:19.197Z,1.80
2022-08-23T15:34:25.003Z,1.87
2022-08-23T15:39:31.392Z,2.37
2022-08-23T15:44:36.985Z,2.37
2022-08-23T15:49:43.217Z,1.90
2022-08-23T15:54:49.314Z,1.90
2022-08-23T15:59:56.452Z,1.77
2022-08-23T16:05:02.187Z,1.90
2022-08-23T16:10:09.210Z,2.17
2022-08-23T16:15:14.746Z,2.00
2022-08-23T16:20:20.462Z,2.37
2022-08-23T16:25:26.086Z,2.20
2022-08-23T16:30:31.983Z,2.20
2022-08-23T16:35:37.716Z,2.13
2022-08-23T16:40:43.224Z,1.93
2022-08-23T16:45:49.044Z,2.67
2022-08-23T16:50:54.721Z,2.13
2022-08-23T16:56:00.288Z,2.30
2022-08-23T17:01:06.738Z,2.10
2022-08-23T17:06:12.937Z,2.40
2022-08-23T17:11:20.324Z,2.40
2022-08-23T17:16:26.059Z,2.10
2022-08-23T17:21:32.114Z,2.27
2022-08-23T17:26:37.973Z,2.10
2022-08-23T17:31:44.289Z,2.50
2022-08-23T17:36:52.861Z,2.67
2022-08-23T17:41:59.640Z,2.40
2022-08-23T17:47:08.217Z,2.10
2022-08-23T17:52:16.039Z,2.27
2022-08-23T17:57:23.251Z,2.57
2022-08-23T18:02:29.108Z,2.97
2022-08-23T18:07:35.135Z,2.90
2022-08-23T18:12:40.982Z,2.30
2022-08-23T18:17:46.730Z,2.63
2022-08-23T18:22:52.291Z,2.17
2022-08-23T18:28:07.181Z,2.37
2022-08-23T18:33:13.977Z,2.10
2022-08-23T18:38:20.294Z,2.50
2022-08-23T18:43:27.163Z,2.50
2022-08-23T18:48:34.988Z,2.30
2022-08-23T18:53:40.598Z,2.43
2022-08-23T18:58:48.047Z,2.23
2022-08-23T19:03:54.559Z,2.50
2022-08-23T19:09:01.141Z,2.57
2022-08-23T19:14:08.881Z,2.43
2022-08-23T19:19:14.958Z,2.77
2022-08-23T19:24:20.570Z,2.63
2022-08-23T19:29:26.353Z,3.10
2022-08-23T19:34:32.220Z,3.40
2022-08-23T19:39:38.499Z,3.77
2022-08-23T19:44:44.305Z,2.80
2022-08-23T19:49:51.094Z,2.77
2022-08-23T19:55:01.548Z,3.00
2022-08-23T20:00:09.527Z,2.93
2022-08-23T20:05:15.537Z,2.93
2022-08-23T20:10:21.817Z,3.43
2022-08-23T20:15:27.792Z,4.57
2022-08-23T20:20:33.376Z,3.43
2022-08-23T20:25:39.124Z,2.77
2022-08-23T20:30:44.800Z,2.93
2022-08-23T20:35:51.068Z,2.83
2022-08-23T20:40:58.069Z,2.97
2022-08-23T20:46:06.725Z,2.60
2022-08-23T20:51:12.790Z,2.90
2022-08-23T20:56:19.041Z,3.00
2022-08-23T21:01:27.366Z,4.10
2022-08-23T21:06:38.817Z,3.47
2022-08-23T21:11:45.277Z,3.03
2022-08-23T21:16:51.058Z,3.50
2022-08-23T21:21:56.604Z,3.77
2022-08-23T21:27:02.180Z,3.33
2022-08-23T21:32:09.684Z,3.27
2022-08-23T21:37:15.427Z,3.10
2022-08-23T21:42:23.702Z,3.60
2022-08-23T21:47:29.559Z,4.17
2022-08-23T21:52:35.228Z,4.40
2022-08-23T21:57:41.504Z,4.27
2022-08-23T22:02:49.397Z,3.40
2022-08-23T22:07:55.501Z,3.73
2022-08-23T22:13:01.259Z,4.07
2022-08-23T22:18:07.236Z,4.00
2022-08-23T22:23:12.913Z,4.23
2022-08-23T22:28:18.532Z,4.20
2022-08-23T22:33:24.049Z,4.17
2022-08-23T22:38:29.619Z,4.80
2022-08-23T22:43:35.797Z,4.13
2022-08-23T22:48:41.514Z,4.47
2022-08-23T22:53:50.353Z,4.20
2022-08-23T22:58:56.576Z,4.93
2022-08-23T23:04:07.161Z,4.03
2022-08-23T23:09:14.951Z,5.10
2022-08-23T23:14:22.303Z,7.03
2022-08-23T23:19:46.649Z,7.67
2022-08-23T23:24:52.249Z,5.87
2022-08-23T23:29:57.721Z,6.97
2022-08-23T23:35:04.709Z,7.00
2022-08-23T23:40:11.418Z,6.43
2022-08-23T23:45:17.609Z,5.53
2022-08-23T23:50:23.879Z,4.60
2022-08-23T23:55:30.447Z,4.47
